Latest Weather Observations for Ulladulla

IDN60801

Issued at 3:04 pm EST Saturday 30 July 2016 (issued every 30 minutes, with the page automatically refreshed every 10 minutes)

About weather observations | Map of weather stations | Latest weather observations for NSW | Other Formats
Station Details ID: 069138 Name: ULLADULLA AWS Lat: -35.36 Lon: 150.48 Height: 35.7 m
Data from the previous 72 hours. | See also: Recent months at Ulladulla
Date/Time
EST
Temp
°C
App
Temp
°C
Dew
Point
°C
Rel
Hum
%
Delta-T
°C
Wind Press
QNH
hPa
Press
MSL
hPa
Rain since
9am
mm
Dir  Spd
km/h
Gust
km/h
Spd
kts
Gust
kts
30/03:00pm 15.7 13.5 5.3 50 4.9 E 6 7 3 4 1019.9 1019.9 0.0
30/02:30pm 15.6 13.3 4.9 49 5.0 SE 6 9 3 5 1020.0 1020.0 0.0
30/02:00pm 15.3 12.7 4.1 47 5.2 SE 7 11 4 6 1020.0 1020.0 0.0
30/01:30pm 15.6 12.9 3.7 45 5.5 SSE 7 9 4 5 1020.4 1020.4 0.0
30/01:00pm 15.8 13.4 4.5 47 5.3 SSE 6 7 3 4 1020.9 1020.9 0.0
30/12:30pm 15.6 13.5 5.8 52 4.7 S 6 7 3 4 1021.5 1021.6 0.0
30/12:00pm 15.4 13.0 5.3 51 4.8 S 7 9 4 5 1021.8 1021.9 0.0
30/11:30am 15.3 12.9 4.4 48 5.1 S 6 9 3 5 1022.3 1022.4 0.0
30/11:00am 15.2 12.7 4.6 49 4.9 SSW 7 11 4 6 1022.6 1022.7 0.0
30/10:30am 14.9 12.1 5.1 52 4.6 SSW 9 13 5 7 1022.7 1022.8 0.0
30/10:00am 14.8 12.3 4.5 50 4.8 SSW 7 13 4 7 1022.9 1023.0 0.0
30/09:30am 14.1 12.7 5.5 56 4.1 S 2 6 1 3 1023.0 1023.1 0.0
30/09:00am 13.4 11.8 4.6 55 4.0 WSW 2 7 1 4 1023.0 1023.1 0.0
30/08:30am 12.1 10.7 5.7 65 3.0 NNW 2 4 1 2 1022.9 1023.0 0.0
30/08:00am 10.6 9.2 5.6 71 2.3 N 2 6 1 3 1022.6 1022.7 0.0
30/07:30am 9.0 7.0 4.2 72 2.1 NW 4 7 2 4 1022.4 1022.5 0.0
30/07:00am 8.9 6.2 3.7 70 2.2 W 7 9 4 5 1022.1 1022.2 0.0
30/06:30am 9.3 6.6 3.9 69 2.4 W 7 11 4 6 1021.8 1021.9 0.0
30/06:00am 9.3 6.6 3.7 68 2.4 W 7 11 4 6 1021.5 1021.6 0.0
30/05:30am 9.7 6.7 3.9 67 2.5 W 9 13 5 7 1021.1 1021.1 0.0
30/05:00am 10.1 7.4 3.8 65 2.8 W 7 13 4 7 1020.8 1020.8 0.0
30/04:30am 9.9 7.8 3.9 66 2.6 WSW 4 9 2 5 1020.8 1020.8 0.0
30/04:00am 10.3 7.6 3.6 63 2.9 WNW 7 11 4 6 1020.7 1020.7 0.0
30/03:30am 10.5 7.8 3.5 62 3.1 WNW 7 11 4 6 1020.4 1020.4 0.0
30/03:00am 11.0 8.3 3.8 61 3.2 WNW 7 13 4 7 1020.4 1020.4 0.0
30/02:30am 10.9 8.2 3.7 61 3.2 W 7 13 4 7 1020.5 1020.5 0.0
30/02:00am 11.3 8.2 3.8 60 3.3 W 9 13 5 7 1020.5 1020.5 0.0
30/01:30am 11.5 8.4 3.8 59 3.4 W 9 17 5 9 1020.6 1020.6 0.0
30/01:00am 11.9 8.4 3.7 57 3.6 W 11 15 6 8 1020.5 1020.5 0.0
30/12:30am 12.4 9.7 3.9 56 3.8 W 7 13 4 7 1020.4 1020.4 0.0
30/12:00am 12.6 9.2 3.8 55 3.9 W 11 19 6 10 1020.5 1020.5 0.0
 
Date/Time
EST
Temp
°C
App
Temp
°C
Dew
Point
°C
Rel
Hum
%
Delta-T
°C
Wind Press
QNH
hPa
Press
MSL
hPa
Rain since
9am
mm
Dir  Spd
km/h
Gust
km/h
Spd
kts
Gust
kts
29/11:30pm 12.4 9.0 3.9 56 3.8 W 11 19 6 10 1020.4 1020.4 0.0
29/11:00pm 12.4 9.4 4.1 57 3.7 WNW 9 17 5 9 1020.2 1020.2 0.0
29/10:30pm 12.4 9.4 4.1 57 3.8 W 9 19 5 10 1020.0 1020.0 0.0
29/10:00pm 12.3 9.0 4.3 58 3.6 W 11 19 6 10 1019.8 1019.8 0.0
29/09:30pm 12.3 9.0 4.3 58 3.6 WNW 11 20 6 11 1019.7 1019.7 0.0
29/09:00pm 12.4 9.1 4.4 58 3.6 WNW 11 17 6 9 1019.7 1019.7 0.0
29/08:30pm 12.2 9.3 4.4 59 3.5 W 9 17 5 9 1019.3 1019.3 0.0
29/08:00pm 12.2 9.3 4.4 59 3.5 WNW 9 19 5 10 1018.9 1018.9 0.0
29/07:30pm 12.4 8.7 4.6 59 3.6 WNW 13 20 7 11 1018.4 1018.4 0.0
29/07:00pm 12.8 8.7 4.5 57 3.8 WNW 15 24 8 13 1018.2 1018.2 0.0
29/06:30pm 13.2 8.7 4.4 55 4.0 WNW 17 30 9 16 1017.8 1017.8 0.0
29/06:00pm 13.4 9.7 4.6 55 4.0 WNW 13 24 7 13 1017.6 1017.6 0.0
29/05:30pm 13.8 10.5 4.4 53 4.3 WNW 11 19 6 10 1017.2 1017.2 0.0
29/05:00pm 14.7 11.3 4.1 49 4.9 WNW 11 22 6 12 1017.0 1017.0 0.0
29/04:30pm 16.4 13.3 3.8 43 5.8 W 9 17 5 9 1016.9 1016.9 0.0
29/04:00pm 17.1 14.3 3.4 40 6.3 WNW 7 15 4 8 1016.8 1016.8 0.0
29/03:30pm 17.5 13.9 3.0 38 6.7 WNW 11 22 6 12 1016.7 1016.7 0.0
29/03:00pm 17.8 15.2 4.0 40 6.5 WNW 7 13 4 7 1016.8 1016.8 0.0
29/02:30pm 16.6 14.3 4.9 46 5.6 NNE 6 7 3 4 1016.8 1016.8 0.0
29/02:00pm 16.1 14.4 5.7 50 5.0 NNE 4 9 2 5 1016.8 1016.8 0.0
29/01:30pm 17.6 15.2 4.2 41 6.3 W 6 13 3 7 1017.2 1017.2 0.0
29/01:00pm 17.4 14.1 4.4 42 6.1 W 11 19 6 10 1017.6 1017.6 0.0
29/12:30pm 15.5 13.7 5.4 51 4.8 SSE 4 9 2 5 1018.2 1018.2 0.0
29/12:00pm 15.2 12.7 4.0 47 5.2 E 6 7 3 4 1018.7 1018.7 0.0
29/11:30am 14.9 12.9 4.6 50 4.8 NE 4 6 2 3 1019.0 1019.0 0.0
29/11:00am 13.8 11.4 4.4 53 4.3 NE 6 9 3 5 1019.6 1019.6 0.0
29/10:30am 12.7 10.2 3.6 54 4.1 NNE 6 9 3 5 1020.0 1020.0 0.0
29/10:00am 12.7 10.0 3.6 54 4.1 N 7 9 4 5 1020.4 1020.4 0.0
29/09:30am 12.4 9.9 3.9 56 3.8 N 6 9 3 5 1020.7 1020.7 0.0
29/09:00am 12.4 10.2 3.1 53 4.1 WNW 4 9 2 5 1020.9 1020.9 0.0
29/08:30am 11.4 9.4 2.2 53 3.9 WNW 2 6 1 3 1020.8 1020.8 0.0
29/08:00am 10.2 7.3 2.6 59 3.2 N 7 11 4 6 1020.8 1020.8 0.0
29/07:30am 9.8 6.5 2.2 59 3.2 WNW 9 17 5 9 1020.9 1020.9 0.0
29/07:00am 9.2 5.5 2.1 61 3.0 WNW 11 22 6 12 1020.9 1020.9 0.0
29/06:30am 8.8 4.7 2.2 63 2.8 NW 13 20 7 11 1020.8 1020.8 0.0
29/06:00am 9.0 5.6 2.1 62 2.9 WNW 9 17 5 9 1020.9 1020.9 0.0
29/05:30am 8.9 5.9 2.0 62 2.9 NW 7 15 4 8 1020.6 1020.6 0.0
29/05:00am 8.0 5.8 1.2 62 2.7 NNW 2 4 1 2 1020.6 1020.6 0.0
29/04:30am 8.8 6.3 1.7 61 2.9 NNE 4 6 2 3 1020.6 1020.6 0.0
29/04:00am 10.3 6.4 0.9 52 3.9 WNW 11 17 6 9 1020.5 1020.5 0.0
29/03:30am 10.5 6.5 0.8 51 4.0 WNW 11 19 6 10 1020.4 1020.4 0.0
29/03:00am 10.4 6.8 0.7 51 4.0 WNW 9 11 5 6 1020.5 1020.5 0.0
29/02:30am 10.3 6.8 1.2 53 3.8 NW 9 15 5 8 1020.8 1020.8 0.0
29/02:00am 10.4 6.5 1.2 53 3.8 NW 11 17 6 9 1021.0 1021.0 0.0
29/01:30am 10.9 7.3 0.9 50 4.1 WNW 9 17 5 9 1021.2 1021.3 0.0
29/01:00am 11.0 7.5 1.0 50 4.1 WNW 9 17 5 9 1021.2 1021.3 0.0
29/12:30am 11.0 6.7 1.3 51 4.1 WNW 13 20 7 11 1021.1 1021.1 0.0
29/12:00am 11.2 7.4 1.5 51 4.1 WNW 11 17 6 9 1021.1 1021.1 0.0
 
Date/Time
EST
Temp
°C
App
Temp
°C
Dew
Point
°C
Rel
Hum
%
Delta-T
°C
Wind Press
QNH
hPa
Press
MSL
hPa
Rain since
9am
mm
Dir  Spd
km/h
Gust
km/h
Spd
kts
Gust
kts
28/11:30pm 11.3 6.7 1.8 52 4.0 WNW 15 22 8 12 1021.0 1021.0 0.0
28/11:00pm 11.1 6.9 1.9 53 3.9 WNW 13 19 7 10 1020.9 1020.9 0.0
28/10:30pm 11.8 7.6 1.7 50 4.3 WNW 13 22 7 12 1020.7 1020.7 0.0
28/10:00pm 12.0 7.8 1.9 50 4.3 WNW 13 24 7 13 1020.9 1020.9 0.0
28/09:30pm 12.1 8.0 2.3 51 4.2 WNW 13 22 7 12 1020.9 1020.9 0.0
28/09:00pm 12.0 8.0 2.7 53 4.0 WNW 13 26 7 14 1020.9 1020.9 0.0
28/08:30pm 11.6 8.4 3.1 56 3.7 NW 9 20 5 11 1020.8 1020.8 0.0
28/08:00pm 10.7 8.9 3.3 60 3.2 N 2 6 1 3 1020.8 1020.8 0.0
28/07:30pm 11.1 8.9 3.4 59 3.4 NNW 4 9 2 5 1020.7 1020.7 0.0
28/07:00pm 12.0 9.0 4.0 58 3.6 NW 9 17 5 9 1020.5 1020.5 0.0
28/06:30pm 12.0 9.5 4.0 58 3.6 NNW 6 11 3 6 1020.1 1020.1 0.0
28/06:00pm 12.8 10.4 4.3 56 3.9 NNW 6 11 3 6 1019.8 1019.8 0.0
28/05:30pm 13.4 11.3 4.0 53 4.3 NW 4 7 2 4 1019.7 1019.7 0.0
28/05:00pm 14.9 12.3 4.0 48 5.0 WNW 7 13 4 7 1019.7 1019.7 0.0
28/04:30pm 16.1 13.2 4.5 46 5.4 NW 9 17 5 9 1019.5 1019.5 0.0
28/04:00pm 16.9 15.9 7.5 54 4.7 N 2 6 1 3 1019.4 1019.4 0.0
28/03:30pm 16.2 14.7 6.9 54 4.6 N 4 7 2 4 1019.4 1019.4 0.0
28/03:00pm 17.8 14.5 4.4 41 6.3 W 11 19 6 10 1019.3 1019.3 0.0
28/02:30pm 17.6 14.2 4.2 41 6.3 W 11 22 6 12 1019.5 1019.5 0.0
28/02:00pm 17.9 15.3 4.1 40 6.5 W 7 15 4 8 1019.6 1019.6 0.0
28/01:30pm 17.1 14.8 5.7 47 5.5 N 7 13 4 7 1019.7 1019.7 0.0
28/01:00pm 16.6 14.4 5.3 47 5.4 SW 6 7 3 4 1020.2 1020.2 0.0
28/12:30pm 15.6 13.6 6.9 56 4.3 SSE 7 9 4 5 1020.6 1020.6 0.0
28/12:00pm 16.0 14.0 6.2 52 4.7 NNW 6 13 3 7 1021.2 1021.3 0.0
28/11:30am 15.1 11.9 5.0 51 4.8 N 11 17 6 9 1021.6 1021.7 0.0
28/11:00am 14.8 12.4 5.3 53 4.5 NNE 7 11 4 6 1022.3 1022.4 0.0
28/10:30am 15.0 12.9 6.0 55 4.3 NNE 6 9 3 5 1022.2 1022.3 0.0
28/10:00am 14.9 12.3 4.0 48 5.0 NW 7 11 4 6 1022.5 1022.6 0.0
28/09:30am 14.1 11.0 3.6 49 4.8 WNW 9 15 5 8 1022.4 1022.5 0.0
28/09:00am 13.1 9.5 2.9 50 4.5 WNW 11 22 6 12 1022.2 1022.3 0.0
28/08:30am 12.4 8.9 3.4 54 4.0 NW 11 17 6 9 1022.4 1022.5 0.0
28/08:00am 11.3 7.7 3.1 57 3.6 NW 11 19 6 10 1022.2 1022.3 0.0
28/07:30am 10.4 7.2 3.0 60 3.2 NW 9 17 5 9 1022.1 1022.2 0.0
28/07:00am 10.0 6.8 2.8 61 3.1 W 9 19 5 10 1021.9 1022.0 0.0
28/06:30am 10.0 6.8 2.8 61 3.1 W 9 13 5 7 1021.6 1021.7 0.0
28/06:00am 10.2 7.0 2.8 60 3.2 W 9 17 5 9 1021.3 1021.4 0.0
28/05:30am 10.4 6.8 2.7 59 3.3 W 11 19 6 10 1020.8 1020.8 0.0
28/05:00am 10.4 6.8 3.0 60 3.2 WNW 11 19 6 10 1020.4 1020.4 0.0
28/04:30am 8.6 6.5 3.8 72 2.1 WNW 4 9 2 5 1020.0 1020.0 0.0
28/04:00am 8.2 6.4 3.3 71 2.1 NE 2 2 1 1 1019.7 1019.7 0.0
28/03:30am 9.5 7.0 3.7 67 2.5 WNW 6 9 3 5 1019.5 1019.5 0.0
28/03:00am 9.4 6.9 4.0 69 2.4 NW 6 11 3 6 1019.5 1019.5 0.0
28/02:30am 9.1 6.6 3.7 69 2.3 N 6 7 3 4 1019.5 1019.5 0.0
28/02:00am 10.1 7.5 4.0 66 2.7 NW 7 13 4 7 1019.4 1019.4 0.0
28/01:30am 11.4 8.9 4.6 63 3.1 W 7 13 4 7 1019.7 1019.7 0.0
28/01:00am 11.5 8.2 4.7 63 3.1 WNW 11 17 6 9 1019.5 1019.5 0.0
28/12:30am 11.7 7.7 4.7 62 3.2 WNW 15 24 8 13 1019.5 1019.5 0.0
28/12:00am 11.7 7.7 4.9 63 3.1 WNW 15 24 8 13 1019.5 1019.5 0.0
 
Date/Time
EST
Temp
°C
App
Temp
°C
Dew
Point
°C
Rel
Hum
%
Delta-T
°C
Wind Press
QNH
hPa
Press
MSL
hPa
Rain since
9am
mm
Dir  Spd
km/h
Gust
km/h
Spd
kts
Gust
kts
27/11:30pm 11.9 7.5 4.9 62 3.2 WNW 17 28 9 15 1019.6 1019.6 0.0
27/11:00pm 11.9 8.2 4.6 61 3.3 WNW 13 28 7 15 1019.5 1019.5 0.0
27/10:30pm 12.0 7.9 4.5 60 3.4 W 15 22 8 12 1019.0 1019.0 0.0
27/10:00pm 12.2 8.0 3.9 57 3.7 W 15 28 8 15 1018.7 1018.7 0.0
27/09:30pm 12.5 7.9 3.7 55 3.9 W 17 32 9 17 1018.1 1018.1 0.0
27/09:00pm 12.5 8.3 3.7 55 3.9 WNW 15 26 8 14 1018.0 1018.0 0.0
27/08:30pm 12.6 8.0 3.6 54 4.0 W 17 30 9 16 1017.9 1017.9 0.0
27/08:00pm 12.8 8.5 3.5 53 4.2 WNW 15 33 8 18 1017.3 1017.3 0.0
27/07:30pm 13.0 8.3 3.4 52 4.3 WNW 17 30 9 16 1016.4 1016.4 0.0
27/07:00pm 13.3 8.7 3.7 52 4.3 W 17 30 9 16 1015.9 1015.9 0.0
27/06:30pm 13.5 9.3 3.6 51 4.5 W 15 39 8 21 1015.1 1015.1 0.0
27/06:00pm 13.8 9.2 3.9 51 4.5 W 17 35 9 19 1014.5 1014.5 0.0
27/05:30pm 14.2 9.2 3.7 49 4.8 W 19 33 10 18 1013.9 1013.9 0.0
27/05:00pm 14.7 9.7 3.5 47 5.1 W 19 32 10 17 1013.2 1013.2 0.0
27/04:30pm 15.6 10.7 4.3 47 5.3 WNW 19 33 10 18 1012.6 1012.6 0.0
27/04:00pm 16.2 11.8 4.6 46 5.5 WNW 17 30 9 16 1012.3 1012.3 0.0
27/03:30pm 16.6 11.7 4.3 44 5.8 WNW 19 33 10 18 1011.8 1011.8 0.0

Other Formats:

Comma delimited format used in spreadsheet applications
http://www.bom.gov.au/fwo/IDN60801/IDN60801.94938.axf

JavaScript Object Notation format (JSON) in row-major order
http://www.bom.gov.au/fwo/IDN60801/IDN60801.94938.json